createdAt,value
2022-10-01T00:08:33.875Z,32.90
2022-10-01T00:18:41.347Z,36.20
2022-10-01T00:28:48.767Z,31.80
2022-10-01T00:38:58.714Z,31.20
2022-10-01T00:49:08.133Z,30.80
2022-10-01T00:59:16.314Z,31.60
2022-10-01T01:19:44.741Z,24.80
2022-10-01T01:29:55.379Z,26.10
2022-10-01T01:40:04.174Z,24.10
2022-10-01T01:50:12.562Z,21.30
2022-10-01T02:00:18.304Z,21.50
2022-10-01T02:10:33.576Z,22.50
2022-10-01T02:20:44.694Z,23.40
2022-10-01T02:30:52.445Z,23.10
2022-10-01T02:41:05.107Z,22.60
2022-10-01T02:51:26.666Z,21.40
2022-10-01T03:01:32.875Z,23.20
2022-10-01T03:11:38.713Z,24.60
2022-10-01T03:21:44.686Z,21.10
2022-10-01T03:31:50.631Z,21.10
2022-10-01T03:41:56.485Z,23.20
2022-10-01T03:52:03.364Z,22.90
2022-10-01T04:02:09.237Z,22.60
2022-10-01T04:12:15.725Z,26.80
2022-10-01T04:22:21.487Z,25.20
2022-10-01T04:32:27.138Z,20.20
2022-10-01T04:42:32.766Z,21.50
2022-10-01T04:52:39.632Z,23.10
2022-10-01T05:02:49.234Z,28.00
2022-10-01T05:12:55.141Z,29.10
2022-10-01T05:23:01.037Z,27.00
2022-10-01T05:33:07.508Z,26.50
2022-10-01T05:43:13.183Z,23.70
2022-10-01T05:53:19.181Z,19.50
2022-10-01T06:03:25.697Z,18.40
2022-10-01T06:13:32.435Z,17.80
2022-10-01T06:23:39.026Z,20.40
2022-10-01T06:33:44.844Z,19.30
2022-10-01T06:43:51.246Z,20.30
2022-10-01T06:53:58.821Z,22.50
2022-10-01T07:04:05.006Z,21.70
2022-10-01T07:14:10.658Z,22.70
2022-10-01T07:24:16.814Z,25.70
2022-10-01T07:34:25.004Z,23.00
2022-10-01T07:54:35.235Z,26.50
2022-10-01T08:04:58.867Z,27.10
2022-10-01T08:15:07.308Z,27.90
2022-10-01T08:25:13.145Z,31.90
2022-10-01T08:35:18.918Z,30.40
2022-10-01T08:45:30.190Z,28.80
2022-10-01T08:55:37.785Z,26.30
2022-10-01T09:05:55.237Z,27.00
2022-10-01T09:16:09.896Z,26.30
2022-10-01T09:26:15.964Z,27.80
2022-10-01T09:36:28.339Z,27.00
2022-10-01T09:46:34.889Z,25.00
2022-10-01T09:56:43.898Z,22.10
2022-10-01T10:06:50.392Z,21.90
2022-10-01T10:16:56.723Z,17.50
2022-10-01T10:27:05.572Z,14.80
2022-10-01T10:37:17.115Z,12.50
2022-10-01T10:47:24.590Z,13.10
2022-10-01T10:57:33.536Z,12.80
2022-10-01T11:07:39.336Z,13.00
2022-10-01T11:18:10.956Z,12.80
2022-10-01T11:28:35.903Z,13.40
2022-10-01T11:38:52.218Z,14.30
2022-10-01T11:49:02.846Z,12.60
2022-10-01T11:59:15.135Z,11.30
2022-10-01T12:09:26.203Z,10.90
2022-10-01T12:19:35.599Z,11.00
2022-10-01T12:29:51.429Z,7.70
2022-10-01T12:40:09.035Z,8.70
2022-10-01T12:50:34.595Z,9.20
2022-10-01T13:00:45.647Z,9.60
2022-10-01T13:11:02.349Z,10.40
2022-10-01T13:21:18.855Z,10.00
2022-10-01T13:31:37.505Z,10.20
2022-10-01T13:41:43.468Z,11.40
2022-10-01T13:51:49.883Z,9.90
2022-10-01T14:01:55.613Z,12.10
2022-10-01T14:12:23.122Z,11.50
2022-10-01T14:22:44.035Z,13.40
2022-10-01T14:33:09.581Z,11.30
2022-10-01T14:43:20.407Z,11.20
2022-10-01T14:53:29.121Z,11.70
2022-10-01T15:03:41.022Z,11.60
2022-10-01T15:13:48.828Z,10.20
2022-10-01T15:23:55.314Z,11.20
2022-10-01T15:34:03.919Z,11.20
2022-10-01T15:44:46.683Z,10.70
2022-10-01T15:55:03.976Z,12.60
2022-10-01T16:05:16.439Z,13.40
2022-10-01T16:15:30.461Z,13.40
2022-10-01T16:25:46.543Z,13.70
2022-10-01T16:35:53.945Z,13.70
2022-10-01T16:46:00.211Z,15.20
2022-10-01T16:56:06.505Z,16.30
2022-10-01T17:06:12.279Z,18.60
2022-10-01T17:16:19.475Z,19.00
2022-10-01T17:26:28.353Z,21.00
2022-10-01T17:36:36.196Z,21.50
2022-10-01T17:46:42.113Z,25.50
2022-10-01T17:56:49.284Z,25.20
2022-10-01T18:06:59.570Z,22.50
2022-10-01T18:17:05.586Z,26.70
2022-10-01T18:27:11.763Z,24.10
2022-10-01T18:37:29.809Z,24.80
2022-10-01T18:58:04.260Z,8.50
2022-10-01T19:08:17.484Z,6.20
2022-10-01T19:18:41.374Z,4.40
2022-10-01T19:29:00.143Z,4.00
2022-10-01T19:39:12.055Z,3.40
2022-10-01T19:49:22.311Z,4.50
2022-10-01T19:59:30.141Z,4.50
2022-10-01T20:09:44.867Z,4.30
2022-10-01T20:20:01.906Z,3.90
2022-10-01T20:30:11.882Z,5.00
2022-10-01T20:40:25.189Z,5.20
2022-10-01T20:50:35.818Z,4.10
2022-10-01T21:00:45.970Z,4.60
2022-10-01T21:10:55.894Z,6.50
2022-10-01T21:21:15.482Z,6.70
2022-10-01T21:31:32.301Z,5.50
2022-10-01T21:41:55.716Z,4.90
2022-10-01T21:52:11.657Z,6.00
2022-10-01T22:02:33.703Z,5.50
2022-10-01T22:12:43.765Z,5.30
2022-10-01T22:22:51.413Z,4.60
2022-10-01T22:33:03.813Z,5.50
2022-10-01T22:43:12.035Z,4.50
2022-10-01T22:53:35.032Z,4.60
2022-10-01T23:03:57.793Z,4.20
2022-10-01T23:14:15.494Z,4.20
2022-10-01T23:24:35.793Z,3.90
2022-10-01T23:34:52.656Z,4.90
2022-10-01T23:45:07.642Z,4.50
2022-10-01T23:55:38.559Z,4.70
